sensor_id;sensor_type;location;lat;lon;timestamp;temperature;humidity
34985;DHT22;21190;58.750;17.004;2023-10-08T00:00:06;4.80;99.90
34985;DHT22;21190;58.750;17.004;2023-10-08T00:02:52;4.80;99.90
34985;DHT22;21190;58.750;17.004;2023-10-08T00:05:19;4.80;99.90
34985;DHT22;21190;58.750;17.004;2023-10-08T00:07:48;4.70;99.90
34985;DHT22;21190;58.750;17.004;2023-10-08T00:10:17;4.70;99.90
34985;DHT22;21190;58.750;17.004;2023-10-08T00:12:45;4.70;99.90
34985;DHT22;21190;58.750;17.004;2023-10-08T00:15:14;4.70;99.90
34985;DHT22;21190;58.750;17.004;2023-10-08T00:17:41;4.70;99.90
34985;DHT22;21190;58.750;17.004;2023-10-08T00:20:12;4.70;99.90
34985;DHT22;21190;58.750;17.004;2023-10-08T00:22:52;4.80;99.90
34985;DHT22;21190;58.750;17.004;2023-10-08T00:25:22;4.80;99.90
34985;DHT22;21190;58.750;17.004;2023-10-08T00:27:51;4.80;99.90
34985;DHT22;21190;58.750;17.004;2023-10-08T00:30:18;4.80;99.90
34985;DHT22;21190;58.750;17.004;2023-10-08T00:32:45;4.80;99.90
34985;DHT22;21190;58.750;17.004;2023-10-08T00:35:12;4.70;99.90
34985;DHT22;21190;58.750;17.004;2023-10-08T00:37:40;4.80;99.90
34985;DHT22;21190;58.750;17.004;2023-10-08T00:40:08;4.80;99.90
34985;DHT22;21190;58.750;17.004;2023-10-08T00:42:40;4.80;99.90
34985;DHT22;21190;58.750;17.004;2023-10-08T00:45:13;4.80;99.90
34985;DHT22;21190;58.750;17.004;2023-10-08T00:47:43;4.80;99.90
34985;DHT22;21190;58.750;17.004;2023-10-08T00:50:10;4.80;99.90
34985;DHT22;21190;58.750;17.004;2023-10-08T00:52:48;4.80;99.90
34985;DHT22;21190;58.750;17.004;2023-10-08T00:55:28;4.80;99.90
34985;DHT22;21190;58.750;17.004;2023-10-08T00:57:58;4.70;99.90
34985;DHT22;21190;58.750;17.004;2023-10-08T01:00:35;4.70;99.90
34985;DHT22;21190;58.750;17.004;2023-10-08T01:03:07;4.70;99.90
34985;DHT22;21190;58.750;17.004;2023-10-08T01:05:43;4.70;99.90
34985;DHT22;21190;58.750;17.004;2023-10-08T01:08:15;4.70;99.90
34985;DHT22;21190;58.750;17.004;2023-10-08T01:10:51;4.70;99.90
34985;DHT22;21190;58.750;17.004;2023-10-08T01:13:30;4.60;99.90
34985;DHT22;21190;58.750;17.004;2023-10-08T01:16:03;4.70;99.90
34985;DHT22;21190;58.750;17.004;2023-10-08T01:18:30;4.60;99.90
34985;DHT22;21190;58.750;17.004;2023-10-08T01:20:59;4.70;99.90
34985;DHT22;21190;58.750;17.004;2023-10-08T01:23:34;4.70;99.90
34985;DHT22;21190;58.750;17.004;2023-10-08T01:26:01;4.70;99.90
34985;DHT22;21190;58.750;17.004;2023-10-08T01:28:38;4.70;99.90
34985;DHT22;21190;58.750;17.004;2023-10-08T01:31:05;4.60;99.90
34985;DHT22;21190;58.750;17.004;2023-10-08T01:33:34;4.60;99.90
34985;DHT22;21190;58.750;17.004;2023-10-08T01:36:16;4.60;99.90
34985;DHT22;21190;58.750;17.004;2023-10-08T01:38:43;4.60;99.90
34985;DHT22;21190;58.750;17.004;2023-10-08T01:41:15;4.60;99.90
34985;DHT22;21190;58.750;17.004;2023-10-08T01:43:46;4.60;99.90
34985;DHT22;21190;58.750;17.004;2023-10-08T01:46:13;4.60;99.90
34985;DHT22;21190;58.750;17.004;2023-10-08T01:48:42;4.60;99.90
34985;DHT22;21190;58.750;17.004;2023-10-08T01:51:12;4.70;99.90
34985;DHT22;21190;58.750;17.004;2023-10-08T01:53:52;4.60;99.90
34985;DHT22;21190;58.750;17.004;2023-10-08T01:56:21;4.60;99.90
34985;DHT22;21190;58.750;17.004;2023-10-08T01:58:47;4.50;99.90
34985;DHT22;21190;58.750;17.004;2023-10-08T02:01:19;4.50;99.90
34985;DHT22;21190;58.750;17.004;2023-10-08T02:03:47;4.50;99.90
34985;DHT22;21190;58.750;17.004;2023-10-08T02:06:14;4.50;99.90
34985;DHT22;21190;58.750;17.004;2023-10-08T02:08:41;4.50;99.90
34985;DHT22;21190;58.750;17.004;2023-10-08T02:11:08;4.50;99.90
34985;DHT22;21190;58.750;17.004;2023-10-08T02:13:37;4.50;99.90
34985;DHT22;21190;58.750;17.004;2023-10-08T02:16:04;4.50;99.90
34985;DHT22;21190;58.750;17.004;2023-10-08T02:18:31;4.50;99.90
34985;DHT22;21190;58.750;17.004;2023-10-08T02:21:00;4.60;99.90
34985;DHT22;21190;58.750;17.004;2023-10-08T02:23:26;4.50;99.90
34985;DHT22;21190;58.750;17.004;2023-10-08T02:25:54;4.50;99.90
34985;DHT22;21190;58.750;17.004;2023-10-08T02:28:21;4.50;99.90
34985;DHT22;21190;58.750;17.004;2023-10-08T02:30:51;4.50;99.90
34985;DHT22;21190;58.750;17.004;2023-10-08T02:33:18;4.50;99.90
34985;DHT22;21190;58.750;17.004;2023-10-08T02:35:47;4.50;99.90
34985;DHT22;21190;58.750;17.004;2023-10-08T02:38:16;4.60;99.90
34985;DHT22;21190;58.750;17.004;2023-10-08T02:40:44;4.60;99.90
34985;DHT22;21190;58.750;17.004;2023-10-08T02:43:16;4.50;99.90
34985;DHT22;21190;58.750;17.004;2023-10-08T02:45:44;4.50;99.90
34985;DHT22;21190;58.750;17.004;2023-10-08T02:48:16;4.50;99.90
34985;DHT22;21190;58.750;17.004;2023-10-08T02:50:45;4.50;99.90
34985;DHT22;21190;58.750;17.004;2023-10-08T02:53:12;4.60;99.90
34985;DHT22;21190;58.750;17.004;2023-10-08T02:55:44;4.60;99.90
34985;DHT22;21190;58.750;17.004;2023-10-08T02:58:14;4.60;99.90
34985;DHT22;21190;58.750;17.004;2023-10-08T03:00:42;4.60;99.90
34985;DHT22;21190;58.750;17.004;2023-10-08T03:03:10;4.50;99.90
34985;DHT22;21190;58.750;17.004;2023-10-08T03:05:48;4.50;99.90
34985;DHT22;21190;58.750;17.004;2023-10-08T03:08:16;4.60;99.90
34985;DHT22;21190;58.750;17.004;2023-10-08T03:10:49;4.60;99.90
34985;DHT22;21190;58.750;17.004;2023-10-08T03:13:17;4.60;99.90
34985;DHT22;21190;58.750;17.004;2023-10-08T03:15:46;4.60;99.90
34985;DHT22;21190;58.750;17.004;2023-10-08T03:18:28;4.50;99.90
34985;DHT22;21190;58.750;17.004;2023-10-08T03:21:04;4.50;99.90
34985;DHT22;21190;58.750;17.004;2023-10-08T03:23:32;4.50;99.90
34985;DHT22;21190;58.750;17.004;2023-10-08T03:26:04;4.50;99.90
34985;DHT22;21190;58.750;17.004;2023-10-08T03:29:00;4.50;99.90
34985;DHT22;21190;58.750;17.004;2023-10-08T03:31:31;4.50;99.90
34985;DHT22;21190;58.750;17.004;2023-10-08T03:34:14;4.50;99.90
34985;DHT22;21190;58.750;17.004;2023-10-08T03:36:42;4.50;99.90
34985;DHT22;21190;58.750;17.004;2023-10-08T03:39:15;4.50;99.90
34985;DHT22;21190;58.750;17.004;2023-10-08T03:41:45;4.50;99.90
34985;DHT22;21190;58.750;17.004;2023-10-08T03:44:33;4.50;99.90
34985;DHT22;21190;58.750;17.004;2023-10-08T03:47:04;4.50;99.90
34985;DHT22;21190;58.750;17.004;2023-10-08T03:49:38;4.50;99.90
34985;DHT22;21190;58.750;17.004;2023-10-08T03:52:12;4.40;99.90
34985;DHT22;21190;58.750;17.004;2023-10-08T03:54:42;4.40;99.90
34985;DHT22;21190;58.750;17.004;2023-10-08T03:57:27;4.40;99.90
34985;DHT22;21190;58.750;17.004;2023-10-08T04:00:11;4.40;99.90
34985;DHT22;21190;58.750;17.004;2023-10-08T04:02:55;4.40;99.90
34985;DHT22;21190;58.750;17.004;2023-10-08T04:05:27;4.40;99.90
34985;DHT22;21190;58.750;17.004;2023-10-08T04:08:07;4.40;99.90
34985;DHT22;21190;58.750;17.004;2023-10-08T04:11:05;4.40;99.90
34985;DHT22;21190;58.750;17.004;2023-10-08T04:13:40;4.30;99.90
34985;DHT22;21190;58.750;17.004;2023-10-08T04:16:15;4.30;99.90
34985;DHT22;21190;58.750;17.004;2023-10-08T04:18:47;4.40;99.90
34985;DHT22;21190;58.750;17.004;2023-10-08T04:21:18;4.40;99.90
34985;DHT22;21190;58.750;17.004;2023-10-08T04:23:48;4.40;99.90
34985;DHT22;21190;58.750;17.004;2023-10-08T04:26:20;4.40;99.90
34985;DHT22;21190;58.750;17.004;2023-10-08T04:28:53;4.40;99.90
34985;DHT22;21190;58.750;17.004;2023-10-08T04:31:24;4.30;99.90
34985;DHT22;21190;58.750;17.004;2023-10-08T04:33:55;4.30;99.90
34985;DHT22;21190;58.750;17.004;2023-10-08T04:36:27;4.30;99.90
34985;DHT22;21190;58.750;17.004;2023-10-08T04:38:54;4.30;99.90
34985;DHT22;21190;58.750;17.004;2023-10-08T04:41:27;4.30;99.90
34985;DHT22;21190;58.750;17.004;2023-10-08T04:43:55;4.30;99.90
34985;DHT22;21190;58.750;17.004;2023-10-08T04:46:22;4.30;99.90
34985;DHT22;21190;58.750;17.004;2023-10-08T04:49:05;4.30;99.90
34985;DHT22;21190;58.750;17.004;2023-10-08T04:51:34;4.30;99.90
34985;DHT22;21190;58.750;17.004;2023-10-08T04:54:10;4.30;99.90
34985;DHT22;21190;58.750;17.004;2023-10-08T04:56:43;4.40;99.90
34985;DHT22;21190;58.750;17.004;2023-10-08T04:59:11;4.40;99.90
34985;DHT22;21190;58.750;17.004;2023-10-08T05:01:38;4.40;99.90
34985;DHT22;21190;58.750;17.004;2023-10-08T05:04:15;4.40;99.90
34985;DHT22;21190;58.750;17.004;2023-10-08T05:06:57;4.40;99.90
34985;DHT22;21190;58.750;17.004;2023-10-08T05:09:44;4.40;99.90
34985;DHT22;21190;58.750;17.004;2023-10-08T05:12:30;4.40;99.90
34985;DHT22;21190;58.750;17.004;2023-10-08T05:15:00;4.40;99.90
34985;DHT22;21190;58.750;17.004;2023-10-08T05:17:46;4.40;99.90
34985;DHT22;21190;58.750;17.004;2023-10-08T05:20:20;4.40;99.90
34985;DHT22;21190;58.750;17.004;2023-10-08T05:23:12;4.40;99.90
34985;DHT22;21190;58.750;17.004;2023-10-08T05:25:53;4.40;99.90
34985;DHT22;21190;58.750;17.004;2023-10-08T05:28:37;4.40;99.90
34985;DHT22;21190;58.750;17.004;2023-10-08T05:31:30;4.50;99.90
34985;DHT22;21190;58.750;17.004;2023-10-08T05:34:14;4.50;99.90
34985;DHT22;21190;58.750;17.004;2023-10-08T05:36:50;4.50;99.90
34985;DHT22;21190;58.750;17.004;2023-10-08T05:39:40;4.60;99.90
34985;DHT22;21190;58.750;17.004;2023-10-08T05:42:09;4.60;99.90
34985;DHT22;21190;58.750;17.004;2023-10-08T05:44:58;4.60;99.90
34985;DHT22;21190;58.750;17.004;2023-10-08T05:47:48;4.70;99.90
34985;DHT22;21190;58.750;17.004;2023-10-08T05:50:38;4.70;99.90
34985;DHT22;21190;58.750;17.004;2023-10-08T05:53:23;4.60;99.90
34985;DHT22;21190;58.750;17.004;2023-10-08T05:56:25;4.70;99.90
34985;DHT22;21190;58.750;17.004;2023-10-08T05:58:56;4.70;99.90
34985;DHT22;21190;58.750;17.004;2023-10-08T06:01:44;4.70;99.90
34985;DHT22;21190;58.750;17.004;2023-10-08T06:04:13;4.80;99.90
34985;DHT22;21190;58.750;17.004;2023-10-08T06:07:18;4.80;99.90
34985;DHT22;21190;58.750;17.004;2023-10-08T06:09:59;4.80;99.90
34985;DHT22;21190;58.750;17.004;2023-10-08T06:12:40;4.80;99.90
34985;DHT22;21190;58.750;17.004;2023-10-08T06:15:16;4.80;99.90
34985;DHT22;21190;58.750;17.004;2023-10-08T06:17:54;4.90;99.90
34985;DHT22;21190;58.750;17.004;2023-10-08T06:20:34;4.90;99.90
34985;DHT22;21190;58.750;17.004;2023-10-08T06:23:01;4.80;99.90
34985;DHT22;21190;58.750;17.004;2023-10-08T06:25:34;4.90;99.90
34985;DHT22;21190;58.750;17.004;2023-10-08T06:28:16;4.90;99.90
34985;DHT22;21190;58.750;17.004;2023-10-08T06:30:47;5.00;99.90
34985;DHT22;21190;58.750;17.004;2023-10-08T06:33:15;5.00;99.90
34985;DHT22;21190;58.750;17.004;2023-10-08T06:35:46;5.00;99.90
34985;DHT22;21190;58.750;17.004;2023-10-08T06:38:46;5.00;99.90
34985;DHT22;21190;58.750;17.004;2023-10-08T06:41:16;5.10;99.90
34985;DHT22;21190;58.750;17.004;2023-10-08T06:44:06;5.10;99.90
34985;DHT22;21190;58.750;17.004;2023-10-08T06:46:41;5.10;99.90
34985;DHT22;21190;58.750;17.004;2023-10-08T06:49:09;5.10;99.90
34985;DHT22;21190;58.750;17.004;2023-10-08T06:51:41;5.20;99.90
34985;DHT22;21190;58.750;17.004;2023-10-08T06:54:11;5.20;99.90
34985;DHT22;21190;58.750;17.004;2023-10-08T06:56:41;5.20;99.90
34985;DHT22;21190;58.750;17.004;2023-10-08T06:59:19;5.30;99.90
34985;DHT22;21190;58.750;17.004;2023-10-08T07:01:51;5.30;99.90
34985;DHT22;21190;58.750;17.004;2023-10-08T07:04:18;5.30;99.90
34985;DHT22;21190;58.750;17.004;2023-10-08T07:06:50;5.40;99.90
34985;DHT22;21190;58.750;17.004;2023-10-08T07:09:17;5.40;99.90
34985;DHT22;21190;58.750;17.004;2023-10-08T07:11:57;5.40;99.90
34985;DHT22;21190;58.750;17.004;2023-10-08T07:14:25;5.50;99.90
34985;DHT22;21190;58.750;17.004;2023-10-08T07:17:00;5.50;99.90
34985;DHT22;21190;58.750;17.004;2023-10-08T07:19:29;5.50;99.90
34985;DHT22;21190;58.750;17.004;2023-10-08T07:22:08;5.50;99.90
34985;DHT22;21190;58.750;17.004;2023-10-08T07:24:55;5.60;99.90
34985;DHT22;21190;58.750;17.004;2023-10-08T07:27:25;5.60;99.90
34985;DHT22;21190;58.750;17.004;2023-10-08T07:29:59;5.60;99.90
34985;DHT22;21190;58.750;17.004;2023-10-08T07:32:29;5.70;99.90
34985;DHT22;21190;58.750;17.004;2023-10-08T07:34:57;5.70;99.90
34985;DHT22;21190;58.750;17.004;2023-10-08T07:37:41;5.80;99.90
34985;DHT22;21190;58.750;17.004;2023-10-08T07:40:09;5.70;99.90
34985;DHT22;21190;58.750;17.004;2023-10-08T07:42:39;5.90;99.90
34985;DHT22;21190;58.750;17.004;2023-10-08T07:45:06;5.90;99.90
34985;DHT22;21190;58.750;17.004;2023-10-08T07:47:33;5.90;99.90
34985;DHT22;21190;58.750;17.004;2023-10-08T07:50:00;6.00;99.90
34985;DHT22;21190;58.750;17.004;2023-10-08T07:52:38;6.00;99.90
34985;DHT22;21190;58.750;17.004;2023-10-08T07:55:06;6.00;99.90
34985;DHT22;21190;58.750;17.004;2023-10-08T07:57:34;6.00;99.90
34985;DHT22;21190;58.750;17.004;2023-10-08T08:00:01;6.10;99.90
34985;DHT22;21190;58.750;17.004;2023-10-08T08:02:50;6.10;99.90
34985;DHT22;21190;58.750;17.004;2023-10-08T08:05:19;6.20;99.90
34985;DHT22;21190;58.750;17.004;2023-10-08T08:07:47;6.20;99.90
34985;DHT22;21190;58.750;17.004;2023-10-08T08:10:16;6.30;99.90
34985;DHT22;21190;58.750;17.004;2023-10-08T08:12:45;6.30;99.90
34985;DHT22;21190;58.750;17.004;2023-10-08T08:15:12;6.30;99.90
34985;DHT22;21190;58.750;17.004;2023-10-08T08:17:43;6.40;99.90
34985;DHT22;21190;58.750;17.004;2023-10-08T08:20:10;6.40;99.90
34985;DHT22;21190;58.750;17.004;2023-10-08T08:22:45;6.50;99.90
34985;DHT22;21190;58.750;17.004;2023-10-08T08:25:21;6.50;99.90
34985;DHT22;21190;58.750;17.004;2023-10-08T08:28:01;6.60;99.90
34985;DHT22;21190;58.750;17.004;2023-10-08T08:30:32;6.60;99.90
34985;DHT22;21190;58.750;17.004;2023-10-08T08:33:03;6.60;99.90
34985;DHT22;21190;58.750;17.004;2023-10-08T08:35:37;6.60;99.90
34985;DHT22;21190;58.750;17.004;2023-10-08T08:38:04;6.70;99.90
34985;DHT22;21190;58.750;17.004;2023-10-08T08:40:32;6.70;99.90
34985;DHT22;21190;58.750;17.004;2023-10-08T08:42:59;6.80;99.90
34985;DHT22;21190;58.750;17.004;2023-10-08T08:45:31;6.80;99.90
34985;DHT22;21190;58.750;17.004;2023-10-08T08:48:00;6.90;99.90
34985;DHT22;21190;58.750;17.004;2023-10-08T08:50:28;6.90;99.90
34985;DHT22;21190;58.750;17.004;2023-10-08T08:52:55;7.00;99.90
34985;DHT22;21190;58.750;17.004;2023-10-08T08:55:22;7.00;99.90
34985;DHT22;21190;58.750;17.004;2023-10-08T08:57:50;7.10;99.90
34985;DHT22;21190;58.750;17.004;2023-10-08T09:00:20;7.20;99.90
34985;DHT22;21190;58.750;17.004;2023-10-08T09:02:48;7.20;99.90
34985;DHT22;21190;58.750;17.004;2023-10-08T09:05:17;7.20;99.90
34985;DHT22;21190;58.750;17.004;2023-10-08T09:07:57;7.20;99.90
34985;DHT22;21190;58.750;17.004;2023-10-08T09:10:26;7.20;99.90
34985;DHT22;21190;58.750;17.004;2023-10-08T09:12:57;7.20;99.90
34985;DHT22;21190;58.750;17.004;2023-10-08T09:15:27;7.30;99.90
34985;DHT22;21190;58.750;17.004;2023-10-08T09:17:55;7.30;99.90
34985;DHT22;21190;58.750;17.004;2023-10-08T09:20:23;7.30;99.90
34985;DHT22;21190;58.750;17.004;2023-10-08T09:25:40;7.40;99.90
34985;DHT22;21190;58.750;17.004;2023-10-08T09:28:07;7.40;99.90
34985;DHT22;21190;58.750;17.004;2023-10-08T09:30:35;7.40;99.90
34985;DHT22;21190;58.750;17.004;2023-10-08T09:33:06;7.50;99.90
34985;DHT22;21190;58.750;17.004;2023-10-08T09:35:33;7.50;99.90
34985;DHT22;21190;58.750;17.004;2023-10-08T09:38:03;7.50;99.90
34985;DHT22;21190;58.750;17.004;2023-10-08T09:40:30;7.50;99.90
34985;DHT22;21190;58.750;17.004;2023-10-08T09:42:59;7.50;99.90
34985;DHT22;21190;58.750;17.004;2023-10-08T09:45:26;7.50;99.90
34985;DHT22;21190;58.750;17.004;2023-10-08T09:47:54;7.60;99.90
34985;DHT22;21190;58.750;17.004;2023-10-08T09:50:30;7.60;99.90
34985;DHT22;21190;58.750;17.004;2023-10-08T09:53:09;7.60;99.90
34985;DHT22;21190;58.750;17.004;2023-10-08T09:55:54;7.70;99.90
34985;DHT22;21190;58.750;17.004;2023-10-08T09:58:26;7.70;99.90
34985;DHT22;21190;58.750;17.004;2023-10-08T10:00:55;7.90;99.90
34985;DHT22;21190;58.750;17.004;2023-10-08T10:03:27;7.80;99.90
34985;DHT22;21190;58.750;17.004;2023-10-08T10:05:55;7.90;99.90
34985;DHT22;21190;58.750;17.004;2023-10-08T10:08:27;8.00;99.90
34985;DHT22;21190;58.750;17.004;2023-10-08T10:11:03;8.00;99.90
34985;DHT22;21190;58.750;17.004;2023-10-08T10:13:42;8.10;99.90
34985;DHT22;21190;58.750;17.004;2023-10-08T10:16:11;8.20;99.90
34985;DHT22;21190;58.750;17.004;2023-10-08T10:18:44;8.30;99.90
34985;DHT22;21190;58.750;17.004;2023-10-08T10:23:42;8.30;99.90
34985;DHT22;21190;58.750;17.004;2023-10-08T10:26:32;8.40;99.90
34985;DHT22;21190;58.750;17.004;2023-10-08T10:31:48;8.40;99.90
34985;DHT22;21190;58.750;17.004;2023-10-08T10:34:28;8.40;99.90
34985;DHT22;21190;58.750;17.004;2023-10-08T10:36:58;8.50;99.90
34985;DHT22;21190;58.750;17.004;2023-10-08T10:39:29;8.40;99.90
34985;DHT22;21190;58.750;17.004;2023-10-08T10:42:00;8.40;99.90
34985;DHT22;21190;58.750;17.004;2023-10-08T10:44:34;8.40;99.90
34985;DHT22;21190;58.750;17.004;2023-10-08T10:47:04;8.50;99.90
34985;DHT22;21190;58.750;17.004;2023-10-08T10:49:44;8.60;99.90
34985;DHT22;21190;58.750;17.004;2023-10-08T10:52:36;8.70;99.90
34985;DHT22;21190;58.750;17.004;2023-10-08T10:55:19;8.90;99.90
34985;DHT22;21190;58.750;17.004;2023-10-08T10:57:58;8.90;99.90
34985;DHT22;21190;58.750;17.004;2023-10-08T11:00:43;8.90;99.90
34985;DHT22;21190;58.750;17.004;2023-10-08T11:03:10;9.00;99.90
34985;DHT22;21190;58.750;17.004;2023-10-08T11:05:50;8.90;99.90
34985;DHT22;21190;58.750;17.004;2023-10-08T11:08:19;8.90;99.90
34985;DHT22;21190;58.750;17.004;2023-10-08T11:10:47;9.00;99.90
34985;DHT22;21190;58.750;17.004;2023-10-08T11:13:23;9.00;99.90
34985;DHT22;21190;58.750;17.004;2023-10-08T11:15:55;9.10;99.90
34985;DHT22;21190;58.750;17.004;2023-10-08T11:18:26;9.20;99.90
34985;DHT22;21190;58.750;17.004;2023-10-08T11:21:09;9.20;99.90
34985;DHT22;21190;58.750;17.004;2023-10-08T11:23:48;9.30;99.90
34985;DHT22;21190;58.750;17.004;2023-10-08T11:26:36;9.30;99.90
34985;DHT22;21190;58.750;17.004;2023-10-08T11:29:06;9.30;99.90
34985;DHT22;21190;58.750;17.004;2023-10-08T11:31:41;9.40;99.90
34985;DHT22;21190;58.750;17.004;2023-10-08T11:34:11;9.40;99.90
34985;DHT22;21190;58.750;17.004;2023-10-08T11:36:40;9.40;99.90
34985;DHT22;21190;58.750;17.004;2023-10-08T11:39:20;9.40;99.90
34985;DHT22;21190;58.750;17.004;2023-10-08T11:41:57;9.30;99.90
34985;DHT22;21190;58.750;17.004;2023-10-08T11:44:31;9.40;99.90
34985;DHT22;21190;58.750;17.004;2023-10-08T11:47:03;9.50;99.90
34985;DHT22;21190;58.750;17.004;2023-10-08T11:49:48;9.60;99.90
34985;DHT22;21190;58.750;17.004;2023-10-08T11:52:29;9.60;99.90
34985;DHT22;21190;58.750;17.004;2023-10-08T11:54:58;9.50;99.90
34985;DHT22;21190;58.750;17.004;2023-10-08T11:57:24;9.50;99.90
34985;DHT22;21190;58.750;17.004;2023-10-08T11:59:52;9.60;99.90
34985;DHT22;21190;58.750;17.004;2023-10-08T12:02:22;9.60;99.90
34985;DHT22;21190;58.750;17.004;2023-10-08T12:04:49;9.70;99.90
34985;DHT22;21190;58.750;17.004;2023-10-08T12:07:16;9.70;99.90
34985;DHT22;21190;58.750;17.004;2023-10-08T12:09:44;9.70;99.90
34985;DHT22;21190;58.750;17.004;2023-10-08T12:12:15;9.70;99.90
34985;DHT22;21190;58.750;17.004;2023-10-08T12:14:42;9.70;99.90
34985;DHT22;21190;58.750;17.004;2023-10-08T12:17:12;9.60;99.90
34985;DHT22;21190;58.750;17.004;2023-10-08T12:19:39;9.70;99.90
34985;DHT22;21190;58.750;17.004;2023-10-08T12:22:10;9.80;99.90
34985;DHT22;21190;58.750;17.004;2023-10-08T12:24:42;9.80;99.90
34985;DHT22;21190;58.750;17.004;2023-10-08T12:27:09;9.80;99.90
34985;DHT22;21190;58.750;17.004;2023-10-08T12:29:39;9.70;99.90
34985;DHT22;21190;58.750;17.004;2023-10-08T12:32:06;9.80;99.90
34985;DHT22;21190;58.750;17.004;2023-10-08T12:34:44;9.90;99.90
34985;DHT22;21190;58.750;17.004;2023-10-08T12:37:11;9.80;99.90
34985;DHT22;21190;58.750;17.004;2023-10-08T12:39:41;9.80;99.90
34985;DHT22;21190;58.750;17.004;2023-10-08T12:42:26;9.90;99.90
34985;DHT22;21190;58.750;17.004;2023-10-08T12:44:53;10.00;99.90
34985;DHT22;21190;58.750;17.004;2023-10-08T12:47:24;10.00;99.90
34985;DHT22;21190;58.750;17.004;2023-10-08T12:49:55;10.00;99.90
34985;DHT22;21190;58.750;17.004;2023-10-08T12:52:24;10.10;99.90
34985;DHT22;21190;58.750;17.004;2023-10-08T12:54:55;10.10;99.90
34985;DHT22;21190;58.750;17.004;2023-10-08T12:57:22;10.10;99.90
34985;DHT22;21190;58.750;17.004;2023-10-08T12:59:59;10.00;99.90
34985;DHT22;21190;58.750;17.004;2023-10-08T13:02:26;10.10;99.90
34985;DHT22;21190;58.750;17.004;2023-10-08T13:04:55;10.10;99.90
34985;DHT22;21190;58.750;17.004;2023-10-08T13:07:24;10.10;99.90
34985;DHT22;21190;58.750;17.004;2023-10-08T13:09:53;10.10;99.90
34985;DHT22;21190;58.750;17.004;2023-10-08T13:12:20;10.10;99.90
34985;DHT22;21190;58.750;17.004;2023-10-08T13:14:47;10.10;99.90
34985;DHT22;21190;58.750;17.004;2023-10-08T13:17:14;10.10;99.90
34985;DHT22;21190;58.750;17.004;2023-10-08T13:19:42;10.10;99.90
34985;DHT22;21190;58.750;17.004;2023-10-08T13:22:09;10.20;99.90
34985;DHT22;21190;58.750;17.004;2023-10-08T13:24:36;10.20;99.90
34985;DHT22;21190;58.750;17.004;2023-10-08T13:27:03;10.20;99.90
34985;DHT22;21190;58.750;17.004;2023-10-08T13:29:33;10.20;99.90
34985;DHT22;21190;58.750;17.004;2023-10-08T13:32:00;10.20;99.90
34985;DHT22;21190;58.750;17.004;2023-10-08T13:34:28;10.20;99.90
34985;DHT22;21190;58.750;17.004;2023-10-08T13:36:55;10.20;99.90
34985;DHT22;21190;58.750;17.004;2023-10-08T13:39:23;10.20;99.90
34985;DHT22;21190;58.750;17.004;2023-10-08T13:41:50;10.10;99.90
34985;DHT22;21190;58.750;17.004;2023-10-08T13:44:19;10.10;99.90
34985;DHT22;21190;58.750;17.004;2023-10-08T13:46:57;10.10;99.90
34985;DHT22;21190;58.750;17.004;2023-10-08T13:49:25;10.10;99.90
34985;DHT22;21190;58.750;17.004;2023-10-08T13:51:56;10.10;99.90
34985;DHT22;21190;58.750;17.004;2023-10-08T13:54:24;10.00;99.90
34985;DHT22;21190;58.750;17.004;2023-10-08T13:56:57;10.00;99.90
34985;DHT22;21190;58.750;17.004;2023-10-08T13:59:26;10.00;99.90
34985;DHT22;21190;58.750;17.004;2023-10-08T14:01:53;9.90;99.90
34985;DHT22;21190;58.750;17.004;2023-10-08T14:04:22;9.90;99.90
34985;DHT22;21190;58.750;17.004;2023-10-08T14:06:57;9.90;99.90
34985;DHT22;21190;58.750;17.004;2023-10-08T14:09:25;9.90;99.90
34985;DHT22;21190;58.750;17.004;2023-10-08T14:11:59;9.90;99.90
34985;DHT22;21190;58.750;17.004;2023-10-08T14:14:27;9.90;99.90
34985;DHT22;21190;58.750;17.004;2023-10-08T14:16:58;9.90;99.90
34985;DHT22;21190;58.750;17.004;2023-10-08T14:19:38;9.90;99.90
34985;DHT22;21190;58.750;17.004;2023-10-08T14:22:19;10.00;99.90
34985;DHT22;21190;58.750;17.004;2023-10-08T14:24:49;10.00;99.90
34985;DHT22;21190;58.750;17.004;2023-10-08T14:27:26;10.00;99.90
34985;DHT22;21190;58.750;17.004;2023-10-08T14:29:59;10.00;99.90
34985;DHT22;21190;58.750;17.004;2023-10-08T14:32:32;10.00;99.90
34985;DHT22;21190;58.750;17.004;2023-10-08T14:35:00;10.00;99.90
34985;DHT22;21190;58.750;17.004;2023-10-08T14:37:45;9.90;99.90
34985;DHT22;21190;58.750;17.004;2023-10-08T14:40:31;9.90;99.90
34985;DHT22;21190;58.750;17.004;2023-10-08T14:43:16;9.80;99.90
34985;DHT22;21190;58.750;17.004;2023-10-08T14:45:47;9.80;99.90
34985;DHT22;21190;58.750;17.004;2023-10-08T14:48:14;9.80;99.90
34985;DHT22;21190;58.750;17.004;2023-10-08T14:50:41;9.80;99.90
34985;DHT22;21190;58.750;17.004;2023-10-08T14:53:09;9.80;99.90
34985;DHT22;21190;58.750;17.004;2023-10-08T14:55:36;9.80;99.90
34985;DHT22;21190;58.750;17.004;2023-10-08T14:58:08;9.70;99.90
34985;DHT22;21190;58.750;17.004;2023-10-08T15:00:37;9.70;99.90
34985;DHT22;21190;58.750;17.004;2023-10-08T15:03:05;9.70;99.90
34985;DHT22;21190;58.750;17.004;2023-10-08T15:05:33;9.70;99.90
34985;DHT22;21190;58.750;17.004;2023-10-08T15:08:00;9.60;99.90
34985;DHT22;21190;58.750;17.004;2023-10-08T15:10:27;9.60;99.90
34985;DHT22;21190;58.750;17.004;2023-10-08T15:12:56;9.60;99.90
34985;DHT22;21190;58.750;17.004;2023-10-08T15:15:23;9.50;99.90
34985;DHT22;21190;58.750;17.004;2023-10-08T15:17:52;9.50;99.90
34985;DHT22;21190;58.750;17.004;2023-10-08T15:20:19;9.40;99.90
34985;DHT22;21190;58.750;17.004;2023-10-08T15:22:48;9.40;99.90
34985;DHT22;21190;58.750;17.004;2023-10-08T15:25:17;9.30;99.90
34985;DHT22;21190;58.750;17.004;2023-10-08T15:27:45;9.40;99.90
34985;DHT22;21190;58.750;17.004;2023-10-08T15:30:18;9.30;99.90
34985;DHT22;21190;58.750;17.004;2023-10-08T15:32:48;9.30;99.90
34985;DHT22;21190;58.750;17.004;2023-10-08T15:35:17;9.30;99.90
34985;DHT22;21190;58.750;17.004;2023-10-08T15:37:51;9.30;99.90
34985;DHT22;21190;58.750;17.004;2023-10-08T15:40:18;9.20;99.90
34985;DHT22;21190;58.750;17.004;2023-10-08T15:42:51;9.10;99.90
34985;DHT22;21190;58.750;17.004;2023-10-08T15:45:20;9.10;99.90
34985;DHT22;21190;58.750;17.004;2023-10-08T15:47:48;9.10;99.90
34985;DHT22;21190;58.750;17.004;2023-10-08T15:50:19;9.00;99.90
34985;DHT22;21190;58.750;17.004;2023-10-08T15:52:49;9.00;99.90
34985;DHT22;21190;58.750;17.004;2023-10-08T15:55:17;8.90;99.90
34985;DHT22;21190;58.750;17.004;2023-10-08T15:57:46;8.90;99.90
34985;DHT22;21190;58.750;17.004;2023-10-08T16:00:13;8.80;99.90
34985;DHT22;21190;58.750;17.004;2023-10-08T16:02:41;8.80;99.90
34985;DHT22;21190;58.750;17.004;2023-10-08T16:05:11;8.70;99.90
34985;DHT22;21190;58.750;17.004;2023-10-08T16:07:38;8.70;99.90
34985;DHT22;21190;58.750;17.004;2023-10-08T16:10:05;8.60;99.90